• Join FlightAware (Why Join?)
  • Login
  • US Flag 
04:18AM EDT


 

Airport Tracker/Info


-or-


 

Live Flight TrackerFlight Track Log ✈ SCX396 ✈ 11-May-2013 ✈ KSFO - KMSP

Flight Track Log - Related Links

Times and Time Zones

All times are in EDT time to prevent confusion due to time zone crossing. See the SCX396 flight status page for this flight to view local times or setup timezone preferences in your user account.

Time Position Orientation Groundspeed Altitude Reporting Facility
EDT Latitude Longitude Course Direction KTS MPH feet Rate Location/Type
08:51PM 37.6810 -122.3220 54° Northeast 243 280 4,200  Level FlightAware
08:51PM 37.6970 -122.2940 54° Northeast 260 299 5,000 1,920 Climbing FlightAware
08:52PM 37.7200 -122.2550 53° Northeast 285 328 6,000 2,280 Climbing FlightAware
08:52PM 37.7450 -122.2240 44° Northeast 294 338 7,100 2,580 Climbing FlightAware
08:53PM 37.7760 -122.1950 36° Northeast 301 346 8,400 3,000 Climbing FlightAware
08:53PM 37.8220 -122.1500 38° Northeast 308 354 10,600 2,520 Climbing FlightAware
08:54PM 37.8750 -122.1000 37° Northeast 349 402 12,000 2,460 Climbing FlightAware
08:55PM 37.9290 -122.0480 37° Northeast 359 413 14,100 3,060 Climbing FlightAware
08:56PM 37.9910 -121.9890 37° Northeast 373 429 16,400 2,940 Climbing FlightAware
08:56PM 38.0470 -121.9350 37° Northeast 385 443 18,300 2,880 Climbing FlightAware
08:57PM 38.1010 -121.8740 42° Northeast 392 451 20,300 2,820 Climbing FlightAware
08:58PM 38.1380 -121.7840 62° Northeast 404 465 22,300 2,580 Climbing FlightAware
08:58PM 38.1720 -121.6980 63° Northeast 412 474 24,000 2,520 Climbing FlightAware
08:59PM 38.2070 -121.6110 63° Northeast 420 483 25,700 2,400 Climbing FlightAware
09:00PM 38.2480 -121.5060 64° Northeast 431 496 27,400 2,100 Climbing FlightAware
09:00PM 38.2860 -121.4050 64° Northeast 440 506 28,900 1,920 Climbing FlightAware
09:01PM 38.3220 -121.3110 64° Northeast 448 516 30,200 1,800 Climbing FlightAware
09:02PM 38.3580 -121.2150 64° Northeast 454 522 31,300 1,920 Climbing FlightAware
09:03PM 38.4000 -121.1050 64° Northeast 451 519 33,000 2,100 Climbing FlightAware
09:03PM 38.4350 -121.0100 65° Northeast 451 519 34,300 1,680 Climbing FlightAware
09:04PM 38.4720 -120.9130 64° Northeast 454 522 35,300 1,440 Climbing FlightAware
09:05PM 38.5110 -120.8090 64° Northeast 454 522 36,400 1,440 Climbing FlightAware
09:05PM 38.5470 -120.7100 65° Northeast 455 524 37,400 1,500 Climbing FlightAware
09:06PM 38.5840 -120.6120 64° Northeast 452 520 38,400 1,440 Climbing FlightAware
09:07PM 38.6240 -120.5030 65° Northeast 446 513 39,500 1,320 Climbing FlightAware
09:07PM 38.6590 -120.4090 64° Northeast 445 512 40,300 1,020 Climbing FlightAware
09:08PM 38.6960 -120.3070 65° Northeast 439 505 41,000 480 Climbing FlightAware
09:09PM 38.7310 -120.2120 65° Northeast 436 502 41,000  Level FlightAware
09:09PM 38.7640 -120.1220 65° Northeast 437 503 41,000  Level FlightAware
09:10PM 38.8050 -120.0100 65° Northeast 437 503 41,000  Level FlightAware
09:11PM 38.8390 -119.9140 66° East 436 502 41,000  Level FlightAware
09:12PM 38.8760 -119.8140 65° Northeast 436 502 41,000  Level FlightAware
09:13PM 38.9190 -119.6950 65° Northeast 433 498 41,000  Level FlightAware
09:13PM 38.9550 -119.5940 65° Northeast 431 496 41,000  Level FlightAware
09:14PM 38.9910 -119.4920 66° East 429 494 41,000  Level FlightAware
09:15PM 39.0250 -119.3970 65° Northeast 426 490 41,000  Level FlightAware
09:15PM 39.0560 -119.3120 65° Northeast 426 490 41,000  Level FlightAware
09:16PM 39.0480 -119.3320 243° Southwest 426 490 41,000  Level FlightAware
09:17PM 39.1240 -119.1180 65° Northeast 421 484 41,000  Level FlightAware
09:17PM 39.1580 -119.0200 66° East 415 478 41,000  Level FlightAware
09:18PM 39.1840 -118.9430 66° East 415 478 41,000  Level FlightAware
09:19PM 39.2110 -118.8670 65° Northeast 415 478 41,000  Level FlightAware
09:19PM 39.2370 -118.7900 66° East 415 478 41,000  Level FlightAware
09:20PM 39.2640 -118.7130 66° East 415 478 41,000  Level FlightAware
09:21PM 39.2970 -118.6160 66° East 415 478 41,000  Level FlightAware
09:22PM 39.3240 -118.5390 66° East 415 478 41,000  Level FlightAware
09:22PM 39.3500 -118.4620 66° East 415 478 41,000  Level FlightAware
09:23PM 39.3770 -118.3850 66° East 415 478 41,000  Level FlightAware
09:24PM 39.4030 -118.3080 66° East 415 478 41,000  Level FlightAware
09:24PM 39.4360 -118.2110 66° East 415 478 41,000  Level FlightAware
09:25PM 39.4630 -118.1340 66° East 415 478 41,000  Level FlightAware
09:26PM 39.4890 -118.0570 66° East 415 478 41,000  Level FlightAware
09:26PM 39.5160 -117.9790 66° East 415 478 41,000  Level FlightAware
09:27PM 39.6242 -117.6736 66° East 411 473 41,000  Level Oakland Center
09:28PM 39.6697 -117.5378 66° East 411 473 41,000  Level Oakland Center
09:29PM 39.7117 -117.4108 67° East 415 478 41,000  Level Oakland Center
09:30PM 39.7622 -117.2592 67° East 412 474 41,000  Level Oakland Center
09:31PM 39.8056 -117.1275 67° East 415 478 41,000  Level Oakland Center
09:32PM 39.8481 -116.9964 67° East 414 476 41,000  Level Oakland Center
09:33PM 39.8983 -116.8431 67° East 415 478 41,000  Level Oakland Center
09:34PM 39.9408 -116.7111 67° East 415 478 41,000  Level Oakland Center
09:35PM 39.9833 -116.5789 67° East 415 478 41,000  Level Oakland Center
09:36PM 40.0336 -116.4239 67° East 418 481 41,000  Level Oakland Center
09:37PM 40.0833 -116.2678 67° East 417 480 41,000  Level Salt Lake Center
09:38PM 40.1267 -116.1322 67° East 422 486 41,000  Level Salt Lake Center
09:40PM 40.1697 -115.9972 67° East 422 486 41,000  Level Salt Lake Center
09:41PM 40.2189 -115.8400 68° East 420 483 41,000  Level Salt Lake Center
09:42PM 40.2611 -115.7053 68° East 420 483 41,000  Level Salt Lake Center
09:43PM 40.3117 -115.5483 67° East 420 483 41,000  Level Salt Lake Center
09:44PM 40.3528 -115.4142 68° East 417 480 41,000  Level Salt Lake Center
09:45PM 40.3942 -115.2808 68° East 415 478 41,000  Level Salt Lake Center
09:46PM 40.4431 -115.1247 68° East 415 478 41,000  Level Salt Lake Center
09:47PM 40.4822 -114.9911 69° East 411 473 41,000  Level Salt Lake Center
09:48PM 40.5228 -114.8575 68° East 412 474 41,000  Level Salt Lake Center
09:49PM 40.5664 -114.7128 68° East 412 474 41,000  Level Salt Lake Center
09:50PM 40.6094 -114.5708 68° East 416 479 41,000  Level Salt Lake Center
09:51PM 40.6519 -114.4317 68° East 411 473 41,000  Level Salt Lake Center
09:52PM 40.6942 -114.2867 69° East 422 486 41,000  Level Salt Lake Center
09:53PM 40.7369 -114.1442 68° East 420 483 41,000  Level Salt Lake Center
09:54PM 40.7875 -113.9717 69° East 421 484 41,000  Level Salt Lake Center
09:55PM 40.8286 -113.8281 69° East 420 483 41,000  Level Salt Lake Center
09:56PM 40.8708 -113.6850 69° East 419 482 41,000  Level Salt Lake Center
09:57PM 40.9131 -113.5397 69° East 423 487 41,000  Level Salt Lake Center
10:03PM 41.1400 -112.7130 69° East 421 484 41,000  Level FlightAware
10:03PM 41.1720 -112.5980 70° East 422 486 41,000  Level FlightAware
10:04PM 41.2020 -112.4910 70° East 422 486 41,000  Level FlightAware
10:05PM 41.2290 -112.3920 70° East 421 484 41,000  Level FlightAware
10:06PM 41.2590 -112.2830 70° East 420 483 41,000  Level FlightAware
10:06PM 41.2850 -112.1860 70° East 420 483 41,000  Level FlightAware
10:07PM 41.3110 -112.0890 70° East 417 480 41,000  Level FlightAware
10:08PM 41.3400 -111.9820 70° East 418 481 41,000  Level FlightAware
10:08PM 41.3650 -111.8920 70° East 418 481 41,000  Level FlightAware
10:09PM 41.3880 -111.8100 69° East 418 481 41,000  Level FlightAware
10:10PM 41.4100 -111.7280 70° East 418 481 41,000  Level FlightAware
10:10PM 41.4330 -111.6450 70° East 418 481 41,000  Level FlightAware
10:11PM 41.4610 -111.5420 70° East 418 481 41,000  Level FlightAware
10:12PM 41.4830 -111.4600 70° East 418 481 41,000  Level FlightAware
10:12PM 41.5060 -111.3770 70° East 418 481 41,000  Level FlightAware
10:13PM 41.5280 -111.2950 70° East 418 481 41,000  Level FlightAware
10:14PM 41.5560 -111.1910 70° East 418 481 41,000  Level FlightAware
10:15PM 41.5790 -111.1090 69° East 418 481 41,000  Level FlightAware
10:15PM 41.6010 -111.0260 70° East 418 481 41,000  Level FlightAware
10:16PM 41.6240 -110.9440 69° East 418 481 41,000  Level FlightAware
10:17PM 41.6460 -110.8610 70° East 418 481 41,000  Level FlightAware
10:17PM 41.6740 -110.7580 70° East 418 481 41,000  Level FlightAware
10:18PM 41.7486 -110.4550 70° East 413 475 41,000  Level Salt Lake Center
10:19PM 41.7836 -110.3158 71° East 412 474 41,000  Level Salt Lake Center
10:20PM 41.8192 -110.1742 71° East 416 479 41,000  Level Salt Lake Center
10:21PM 41.8617 -110.0089 71° East 419 482 41,000  Level Salt Lake Center
10:22PM 41.8975 -109.8661 71° East 421 484 41,000  Level Salt Lake Center
10:23PM 41.9325 -109.7228 72° East 421 484 41,000  Level Salt Lake Center
10:24PM 41.9736 -109.5553 72° East 421 484 41,000  Level Salt Lake Center
10:25PM 42.0094 -109.4114 71° East 423 487 41,000  Level Salt Lake Center
10:26PM 42.0444 -109.2686 72° East 420 483 41,000  Level Salt Lake Center
10:27PM 42.0858 -109.1006 72° East 421 484 41,000  Level Salt Lake Center
10:28PM 42.1197 -108.9564 72° East 421 484 41,000  Level Salt Lake Center
10:29PM 42.1547 -108.8106 72° East 426 490 41,000  Level Salt Lake Center
10:30PM 42.1956 -108.6411 72° East 426 490 41,000  Level Salt Lake Center
10:31PM 42.2289 -108.4967 73° East 421 484 41,000  Level Salt Lake Center
10:32PM 42.2611 -108.3506 73° East 424 488 41,000  Level Salt Lake Center
10:33PM 42.2994 -108.1833 73° East 419 482 41,000  Level Salt Lake Center
10:34PM 42.3322 -108.0397 73° East 417 480 41,000  Level Salt Lake Center
10:35PM 42.3653 -107.8972 73° East 416 479 41,000  Level Salt Lake Center
10:36PM 42.4022 -107.7300 73° East 417 480 41,000  Level Salt Lake Center
10:37PM 42.4347 -107.5867 73° East 417 480 41,000  Level Salt Lake Center
10:38PM 42.4672 -107.4414 73° East 421 484 41,000  Level Salt Lake Center
10:39PM 42.4894 -107.3442 73° East 422 486 41,000  Level Denver Center
10:40PM 42.5211 -107.1981 74° East 421 484 41,000  Level Denver Center
10:41PM 42.5592 -107.0289 73° East 421 484 41,000  Level Denver Center
10:42PM 42.5908 -106.8828 74° East 422 486 41,000  Level Denver Center
10:43PM 42.6244 -106.7269 74° East 421 484 41,000  Level Denver Center
10:44PM 42.6564 -106.5797 74° East 423 487 41,000  Level Denver Center
10:45PM 42.6928 -106.4089 74° East 423 487 41,000  Level Denver Center
10:46PM 42.7244 -106.2633 73° East 420 483 41,000  Level Denver Center
10:47PM 42.7544 -106.1169 74° East 420 483 41,000  Level Denver Center
10:53PM 42.9344 -105.2080 74° East 41,000  Level FlightAware ADS-B
10:53PM 42.9361 -105.2000 74° East 417 480 41,000  Level FlightAware ADS-B
10:54PM 42.9517 -105.1230 75° East 419 482 41,000  Level FlightAware ADS-B
10:54PM 42.9673 -105.0440 75° East 420 483 41,000  Level FlightAware ADS-B
10:55PM 42.9828 -104.9670 75° East 421 484 41,000  Level FlightAware ADS-B
10:55PM 42.9983 -104.8890 75° East 421 484 41,000  Level FlightAware ADS-B
10:56PM 43.0154 -104.8030 75° East 421 484 41,000  Level FlightAware ADS-B
10:56PM 43.0331 -104.7140 75° East 422 486 41,000  Level FlightAware ADS-B
10:57PM 43.0523 -104.6170 75° East 424 488 41,000  Level FlightAware ADS-B
10:57PM 43.0688 -104.5330 75° East 425 489 41,000  Level FlightAware ADS-B
10:58PM 43.0908 -104.4200 75° East 426 490 41,000  Level FlightAware ADS-B
10:59PM 43.1083 -104.3300 75° East 423 487 41,000  Level FlightAware ADS-B
10:59PM 43.1265 -104.2360 75° East 424 488 41,000  Level FlightAware ADS-B
11:00PM 43.1462 -104.1330 75° East 424 488 41,000  Level FlightAware ADS-B
11:00PM 43.1613 -104.0550 75° East 425 489 41,000  Level FlightAware ADS-B
11:01PM 43.1763 -103.9750 76° East 426 490 41,000  Level FlightAware ADS-B
11:01PM 43.1912 -103.8970 75° East 427 491 41,000  Level FlightAware ADS-B
11:02PM 43.2065 -103.8170 75° East 430 495 41,000  Level FlightAware ADS-B
11:02PM 43.2214 -103.7380 75° East 432 497 41,000  Level FlightAware ADS-B
11:03PM 43.2367 -103.6560 76° East 434 499 41,000  Level FlightAware ADS-B
11:04PM 43.2578 -103.5410 76° East 434 499 41,000  Level FlightAware ADS-B
11:04PM 43.2775 -103.4350 76° East 434 499 41,000  Level FlightAware ADS-B
11:05PM 43.3000 -103.3120 76° East 435 501 41,000  Level FlightAware ADS-B
11:06PM 43.3251 -103.1750 76° East 435 501 41,000  Level FlightAware ADS-B
11:06PM 43.3375 -103.1225 76° East 439 505 41,000  Level Denver Center
11:07PM 43.3642 -102.9697 76° East 434 499 41,000  Level Denver Center
11:08PM 43.3958 -102.7886 76° East 435 501 41,000  Level Denver Center
11:09PM 43.4244 -102.6319 76° East 440 506 41,000  Level Denver Center
11:10PM 43.4506 -102.4756 77° East 440 506 41,000  Level Denver Center
11:11PM 43.4808 -102.2939 77° East 438 504 41,000  Level Denver Center
11:12PM 43.5081 -102.1392 76° East 436 502 41,000  Level Denver Center
11:13PM 43.5347 -101.9781 77° East 442 509 41,000  Level Denver Center
11:14PM 43.5619 -101.8136 77° East 443 510 41,000  Level Denver Center
11:15PM 43.5903 -101.6481 77° East 444 511 41,000  Level Denver Center
11:16PM 43.6175 -101.4822 77° East 444 511 41,000  Level Denver Center
11:17PM 43.6439 -101.3147 78° East 447 514 41,000  Level Denver Center
11:18PM 43.6594 -101.2167 78° East 446 513 41,000  Level Minneapolis Center
11:19PM 43.6875 -101.0506 77° East 445 512 41,000  Level Minneapolis Center
11:20PM 43.7139 -100.8828 78° East 448 516 41,000  Level Minneapolis Center
11:21PM 43.7403 -100.7136 78° East 451 519 41,000  Level Minneapolis Center
11:21PM 43.7561 -100.6117 78° East 447 514 41,000  Level Denver Center
11:22PM 43.7817 -100.4447 78° East 446 513 41,000  Level Denver Center
11:24PM 43.8072 -100.2758 78° East 449 517 41,000  Level Denver Center
11:24PM 43.8183 -100.2097 77° East 449 517 41,000  Level Minneapolis Center
11:25PM 43.8433 -100.0414 78° East 448 516 41,000  Level Minneapolis Center
11:26PM 43.8733 -99.8425 78° East 445 512 41,000  Level Minneapolis Center
11:27PM 43.8972 -99.6764 79° East 443 510 41,000  Level Minneapolis Center
11:28PM 43.9214 -99.5114 78° East 441 507 41,000  Level Minneapolis Center
11:29PM 43.9444 -99.3447 79° East 441 507 41,000  Level Minneapolis Center
11:30PM 43.9689 -99.1767 79° East 445 512 41,000  Level Minneapolis Center
11:36PM 44.0930 -98.2730 79° East 443 510 41,000  Level FlightAware
11:36PM 44.1160 -98.1460 76° East 443 510 41,000  Level FlightAware
11:37PM 44.1350 -98.0380 76° East 443 510 41,000  Level FlightAware
11:38PM 44.1570 -97.9120 76° East 445 512 41,000  Level FlightAware
11:38PM 44.1770 -97.7960 76° East 446 513 41,000  Level FlightAware
11:39PM 44.1960 -97.6870 76° East 448 516 41,000  Level FlightAware
11:40PM 44.2170 -97.5630 77° East 451 519 41,000  Level FlightAware
11:41PM 44.2390 -97.4310 77° East 452 520 41,000  Level FlightAware
11:41PM 44.2580 -97.3190 77° East 454 522 41,000  Level FlightAware
11:42PM 44.2770 -97.2050 77° East 455 524 41,000  Level FlightAware
11:43PM 44.2980 -97.0790 77° East 456 525 41,000  Level FlightAware
11:43PM 44.3170 -96.9650 77° East 457 526 41,000  Level FlightAware
11:44PM 44.3360 -96.8490 77° East 457 526 41,000  Level FlightAware
11:45PM 44.3580 -96.7150 77° East 460 529 41,000  Level FlightAware
11:45PM 44.3760 -96.6010 78° East 461 531 41,000  Level FlightAware
11:46PM 44.3970 -96.4740 77° East 460 529 41,000  Level FlightAware
11:47PM 44.4150 -96.3570 78° East 459 528 41,000  Level FlightAware
11:48PM 44.4360 -96.2260 77° East 458 527 41,000  Level FlightAware
11:48PM 44.4550 -96.1090 77° East 459 528 41,000  Level FlightAware
11:49PM 44.4730 -95.9930 78° East 461 531 41,000  Level FlightAware
11:50PM 44.4910 -95.8750 78° East 463 533 41,000 -540 Level FlightAware
11:50PM 44.5110 -95.7480 78° East 459 528 40,300 -1,740 Descending FlightAware
11:51PM 44.5290 -95.6300 78° East 457 526 38,600 -2,700 Descending FlightAware
11:52PM 44.5480 -95.5020 78° East 457 526 36,500 -2,760 Descending FlightAware
11:52PM 44.5660 -95.3850 78° East 453 521 34,700 -2,640 Descending FlightAware
11:53PM 44.5850 -95.2560 78° East 439 505 32,800 -2,400 Descending FlightAware
11:54PM 44.6020 -95.1470 78° East 427 491 31,300 -2,280 Descending FlightAware
11:54PM 44.6180 -95.0380 78° East 416 479 29,800 -2,220 Descending FlightAware
11:55PM 44.6350 -94.9250 78° East 406 467 28,200 -2,160 Descending FlightAware
11:56PM 44.6500 -94.8230 78° East 396 456 26,800 -2,160 Descending FlightAware
11:57PM 44.6660 -94.7090 79° East 385 443 25,200 -2,160 Descending FlightAware
11:57PM 44.6800 -94.6120 78° East 375 432 23,800 -1,980 Descending FlightAware
11:58PM 44.6950 -94.5080 78° East 366 421 22,400 -1,920 Descending FlightAware
11:59PM 44.7090 -94.4160 78° East 358 412 21,100 -1,980 Descending FlightAware
11:59PM 44.7210 -94.3260 79° East 351 404 19,800 -1,920 Descending FlightAware
12:00AM 44.7360 -94.2240 78° East 345 397 18,400 -1,860 Descending FlightAware
12:01AM 44.7390 -94.1350 87° East 342 394 17,200 -1,860 Descending FlightAware
12:02AM 44.7430 -94.0380 87° East 335 386 15,800 -2,100 Descending FlightAware
12:02AM 44.7460 -93.9540 87° East 340 391 14,300 -2,280 Descending FlightAware
12:03AM 44.7490 -93.8640 87° East 337 388 12,800 -2,160 Descending FlightAware
12:04AM 44.7520 -93.7650 88° East 325 374 11,300 -1,920 Descending FlightAware
12:04AM 44.7550 -93.6820 87° East 316 364 10,100 -1,560 Descending FlightAware
12:05AM 44.7560 -93.6530 87° East 306 352 9,900 -1,080 Descending FlightAware
12:05AM 44.7580 -93.5950 87° East 291 335 9,300 -1,320 Descending FlightAware
12:05AM 44.7590 -93.5470 88° East 285 328 8,700 -1,440 Descending FlightAware
12:06AM 44.7610 -93.4910 87° East 279 321 8,000 -1,500 Descending FlightAware
12:06AM 44.7620 -93.4660 87° East 277 319 7,600 -1,380 Descending FlightAware
12:07AM 44.7630 -93.4250 88° East 271 312 7,100 -1,440 Descending FlightAware
12:07AM 44.7650 -93.3680 87° East 260 299 6,300 -1,440 Descending FlightAware
12:08AM 44.7660 -93.3290 88° East 255 293 5,800 -1,020 Descending FlightAware
12:08AM 44.7680 -93.2800 87° East 236 272 5,400 -660 Descending FlightAware
12:08AM 44.7690 -93.2430 88° East 220 253 5,200 -600 Descending FlightAware
12:09AM 44.7700 -93.2220 86° East 214 246 5,000 -1,020 Descending FlightAware
12:09AM 44.7670 -93.2000 101° East 222 255 4,700 -1,080 Descending FlightAware
12:09AM 44.7570 -93.1590 109° East 225 259 4,200 -1,080 Descending FlightAware
12:10AM 44.7520 -93.1400 110° East 227 261 3,900 -1,200 Descending FlightAware
12:10AM 44.7430 -93.1030 109° East 228 262 3,400 -1,080 Descending FlightAware
12:10AM 44.7410 -93.0890 101° East 219 252 3,300 -240 Descending FlightAware
12:11AM 44.7480 -93.0660 67° East 183 211 3,300  Level FlightAware
12:11AM 44.7540 -93.0580 43° Northeast 174 200 3,300  Level FlightAware
12:11AM 44.7640 -93.0510 26° Northeast 167 192 3,300  Level FlightAware
12:11AM 44.7760 -93.0500 North 157 181 3,300  Level FlightAware
12:12AM 44.7860 -93.0540 344° North 153 176 3,300 -420 Level FlightAware
12:12AM 44.7950 -93.0630 325° Northwest 154 177 3,100 -600 Descending FlightAware
12:12AM 44.8050 -93.0830 305° West 157 181 2,900 -600 Descending FlightAware
12:12AM 44.8110 -93.0960 303° West 158 182 2,700 -900 Descending FlightAware
12:13AM 44.8200 -93.1180 300° West 156 180 2,300 -900 Descending FlightAware
12:13AM 44.8310 -93.1440 301° West 151 174 1,900 -720 Descending FlightAware
12:14AM 44.8410 -93.1660 303° West 136 157 1,600 -780 Descending FlightAware
12:14AM 44.8500 -93.1860 302° West 127 146 1,200 -780 Descending FlightAware
12:15AM 44.8590 -93.2070 301° West 131 151 900 -600 Descending FlightAware
12:15AM 44.8680 -93.2280 301° West 131 151 600 -600 Descending FlightAware